createdAt,value
2022-08-20T00:02:19.344Z,100344.84
2022-08-20T00:04:47.779Z,100335.53
2022-08-20T00:07:16.242Z,100342.72
2022-08-20T00:09:44.984Z,100337.94
2022-08-20T00:12:17.049Z,100340.19
2022-08-20T00:14:44.986Z,100340.59
2022-08-20T00:17:14.281Z,100344.69
2022-08-20T00:19:42.273Z,100346.28
2022-08-20T00:22:10.273Z,100347.88
2022-08-20T00:24:38.389Z,100332.16
2022-08-20T00:27:06.546Z,100333.59
2022-08-20T00:29:34.529Z,100335.84
2022-08-20T00:32:05.581Z,100327.34
2022-08-20T00:34:34.874Z,100338.00
2022-08-20T00:37:02.820Z,100339.63
2022-08-20T00:39:30.762Z,100334.00
2022-08-20T00:41:59.353Z,100340.78
2022-08-20T00:44:27.890Z,100334.31
2022-08-20T00:46:56.184Z,100339.06
2022-08-20T00:49:27.959Z,100348.69
2022-08-20T00:52:02.654Z,100344.72
2022-08-20T00:54:39.066Z,100346.78
2022-08-20T00:57:10.658Z,100346.34
2022-08-20T00:59:41.600Z,100341.38
2022-08-20T01:02:17.548Z,100347.94
2022-08-20T01:04:48.664Z,100344.81
2022-08-20T01:07:20.455Z,100350.09
2022-08-20T01:09:58.155Z,100349.63
2022-08-20T01:12:29.896Z,100353.06
2022-08-20T01:15:00.038Z,100360.84
2022-08-20T01:17:32.394Z,100365.75
2022-08-20T01:20:04.345Z,100367.34
2022-08-20T01:23:03.957Z,100369.75
2022-08-20T01:25:42.400Z,100369.91
2022-08-20T01:28:11.526Z,100376.47
2022-08-20T01:30:39.474Z,100379.72
2022-08-20T01:33:07.512Z,100381.59
2022-08-20T01:35:38.315Z,100382.56
2022-08-20T01:38:07.334Z,100385.06
2022-08-20T01:40:59.464Z,100385.69
2022-08-20T01:43:28.978Z,100383.22
2022-08-20T01:46:01.227Z,100380.09
2022-08-20T01:48:32.112Z,100388.94
2022-08-20T01:51:06.361Z,100384.16
2022-08-20T01:53:37.957Z,100388.03
2022-08-20T01:56:08.563Z,100387.69
2022-08-20T01:58:41.436Z,100387.47
2022-08-20T02:01:19.299Z,100398.19
2022-08-20T02:03:47.271Z,100401.69
2022-08-20T02:06:16.010Z,100401.13
2022-08-20T02:08:44.161Z,100402.78
2022-08-20T02:11:15.101Z,100400.97
2022-08-20T02:13:44.356Z,100400.56
2022-08-20T02:16:12.406Z,100405.94
2022-08-20T02:18:40.355Z,100401.78
2022-08-20T02:21:08.437Z,100410.81
2022-08-20T02:23:36.271Z,100404.84
2022-08-20T02:26:07.407Z,100406.50
2022-08-20T02:28:37.849Z,100414.34
2022-08-20T02:31:08.565Z,100410.66
2022-08-20T02:33:39.139Z,100409.28
2022-08-20T02:36:08.192Z,100413.41
2022-08-20T02:38:38.882Z,100411.38
2022-08-20T02:41:07.481Z,100416.75
2022-08-20T02:43:36.286Z,100409.50
2022-08-20T02:46:08.918Z,100404.63
2022-08-20T02:48:36.842Z,100404.44
2022-08-20T02:51:10.030Z,100406.09
2022-08-20T02:53:41.737Z,100405.28
2022-08-20T02:56:10.263Z,100411.63
2022-08-20T02:58:39.057Z,100415.16
2022-08-20T03:01:15.253Z,100415.53
2022-08-20T03:03:44.302Z,100414.31
2022-08-20T03:06:13.583Z,100416.00
2022-08-20T03:08:42.377Z,100417.66
2022-08-20T03:11:10.740Z,100416.00
2022-08-20T03:13:38.858Z,100417.81
2022-08-20T03:16:09.467Z,100418.22
2022-08-20T03:18:39.718Z,100425.03
2022-08-20T03:21:09.855Z,100416.63
2022-08-20T03:23:41.321Z,100416.44
2022-08-20T03:26:11.924Z,100419.31
2022-08-20T03:28:40.495Z,100416.00
2022-08-20T03:31:10.367Z,100419.13
2022-08-20T03:33:52.626Z,100408.22
2022-08-20T03:36:24.219Z,100404.50
2022-08-20T03:38:57.402Z,100404.50
2022-08-20T03:41:25.365Z,100405.16
2022-08-20T03:43:54.532Z,100402.28
2022-08-20T03:46:28.036Z,100403.13
2022-08-20T03:48:59.586Z,100401.28
2022-08-20T03:51:29.576Z,100404.78
2022-08-20T03:53:57.803Z,100408.09
2022-08-20T03:56:26.249Z,100404.59
2022-08-20T03:58:54.333Z,100395.53
2022-08-20T04:01:45.117Z,100404.59
2022-08-20T04:04:12.612Z,100405.22
2022-08-20T04:06:41.237Z,100401.28
2022-08-20T04:09:11.796Z,100402.09
2022-08-20T04:11:44.882Z,100404.97
2022-08-20T04:14:17.404Z,100412.00
2022-08-20T04:16:48.979Z,100406.81
2022-08-20T04:19:17.343Z,100408.03
2022-08-20T04:21:48.516Z,100413.00
2022-08-20T04:24:22.825Z,100408.47
2022-08-20T04:27:00.180Z,100420.22
2022-08-20T04:29:32.448Z,100412.38
2022-08-20T04:32:05.710Z,100421.25
2022-08-20T04:34:34.871Z,100415.03
2022-08-20T04:37:02.793Z,100418.56
2022-08-20T04:39:30.816Z,100418.56
2022-08-20T04:41:57.991Z,100415.03
2022-08-20T04:44:26.101Z,100421.69
2022-08-20T04:46:54.153Z,100425.19
2022-08-20T04:49:26.577Z,100423.19
2022-08-20T04:51:55.793Z,100426.50
2022-08-20T04:54:23.708Z,100429.84
2022-08-20T04:56:51.741Z,100422.81
2022-08-20T04:59:19.716Z,100419.97
2022-08-20T05:01:47.528Z,100424.13
2022-08-20T05:04:15.482Z,100424.75
2022-08-20T05:06:45.207Z,100429.47
2022-08-20T05:09:13.202Z,100429.72
2022-08-20T05:11:41.327Z,100433.69
2022-08-20T05:14:10.204Z,100429.59
2022-08-20T05:16:41.374Z,100440.97
2022-08-20T05:19:11.998Z,100445.56
2022-08-20T05:21:40.788Z,100447.25
2022-08-20T05:24:11.893Z,100441.66
2022-08-20T05:26:40.327Z,100442.13
2022-08-20T05:29:08.475Z,100449.78
2022-08-20T05:31:38.393Z,100458.47
2022-08-20T05:34:10.676Z,100453.94
2022-08-20T05:36:40.625Z,100457.91
2022-08-20T05:39:10.616Z,100457.09
2022-08-20T05:41:39.850Z,100460.41
2022-08-20T05:44:10.802Z,100468.25
2022-08-20T05:46:40.854Z,100471.38
2022-08-20T05:49:09.614Z,100472.66
2022-08-20T05:51:37.826Z,100475.16
2022-08-20T05:54:07.152Z,100476.63
2022-08-20T05:56:37.701Z,100487.97
2022-08-20T05:59:09.412Z,100476.22
2022-08-20T06:01:39.773Z,100481.59
2022-08-20T06:04:26.988Z,100480.78
2022-08-20T06:06:57.272Z,100477.06
2022-08-20T06:09:31.415Z,100476.06
2022-08-20T06:12:02.965Z,100483.47
2022-08-20T06:14:31.958Z,100478.72
2022-08-20T06:17:05.658Z,100477.72
2022-08-20T06:19:34.752Z,100485.56
2022-08-20T06:22:17.674Z,100477.97
2022-08-20T06:24:49.007Z,100481.34
2022-08-20T06:27:22.315Z,100480.41
2022-08-20T06:29:51.296Z,100477.59
2022-08-20T06:32:28.792Z,100478.88
2022-08-20T06:35:03.143Z,100482.00
2022-08-20T06:37:32.752Z,100485.38
2022-08-20T06:40:07.065Z,100480.06
2022-08-20T06:42:36.968Z,100488.31
2022-08-20T06:45:05.847Z,100482.53
2022-08-20T06:47:35.236Z,100487.28
2022-08-20T06:50:09.627Z,100481.72
2022-08-20T06:52:51.650Z,100485.66
2022-08-20T06:55:21.880Z,100489.19
2022-08-20T06:57:59.352Z,100493.53
2022-08-20T07:00:28.521Z,100499.53
2022-08-20T07:02:57.662Z,100504.72
2022-08-20T07:05:26.673Z,100498.56
2022-08-20T07:07:54.849Z,100498.22
2022-08-20T07:10:25.697Z,100500.59
2022-08-20T07:12:53.920Z,100506.88
2022-08-20T07:15:26.946Z,100501.97
2022-08-20T07:18:01.423Z,100500.38
2022-08-20T07:20:31.671Z,100507.66
2022-08-20T07:23:00.526Z,100499.81
2022-08-20T07:25:29.726Z,100502.75
2022-08-20T07:28:01.662Z,100500.91
2022-08-20T07:30:56.841Z,100495.38
2022-08-20T07:33:29.882Z,100497.91
2022-08-20T07:36:03.377Z,100491.38
2022-08-20T07:38:32.743Z,100493.28
2022-08-20T07:41:03.769Z,100497.66
2022-08-20T07:43:34.218Z,100495.81
2022-08-20T07:46:07.638Z,100504.56
2022-08-20T07:48:39.964Z,100503.13
2022-08-20T07:51:09.620Z,100502.50
2022-08-20T07:53:40.419Z,100501.84
2022-08-20T07:56:12.810Z,100500.00
2022-08-20T07:58:43.970Z,100503.28
2022-08-20T08:01:13.543Z,100501.25
2022-08-20T08:03:50.170Z,100512.84
2022-08-20T08:06:29.518Z,100504.13
2022-08-20T08:09:05.205Z,100501.81
2022-08-20T08:11:35.813Z,100504.72
2022-08-20T08:14:06.581Z,100499.91
2022-08-20T08:16:39.821Z,100497.94
2022-08-20T08:19:14.286Z,100501.50
2022-08-20T08:21:44.260Z,100502.72
2022-08-20T08:24:16.594Z,100507.91
2022-08-20T08:26:50.073Z,100505.03
2022-08-20T08:29:21.327Z,100509.31
2022-08-20T08:31:52.857Z,100504.34
2022-08-20T08:34:21.024Z,100502.59
2022-08-20T08:36:48.965Z,100501.31
2022-08-20T08:39:20.337Z,100499.47
2022-08-20T08:41:50.424Z,100504.69
2022-08-20T08:44:23.539Z,100509.41
2022-08-20T08:46:57.700Z,100511.06
2022-08-20T08:49:37.492Z,100505.03
2022-08-20T08:52:14.740Z,100497.97
2022-08-20T08:54:47.689Z,100495.97
2022-08-20T08:57:16.710Z,100503.16
2022-08-20T08:59:46.161Z,100502.31
2022-08-20T09:02:33.462Z,100497.59
2022-08-20T09:05:05.406Z,100499.59
2022-08-20T09:07:34.698Z,100506.38
2022-08-20T09:10:04.797Z,100505.13
2022-08-20T09:12:33.193Z,100497.19
2022-08-20T09:15:01.399Z,100498.09
2022-08-20T09:17:31.110Z,100500.63
2022-08-20T09:19:59.121Z,100502.50
2022-08-20T09:22:27.224Z,100496.38
2022-08-20T09:24:56.201Z,100506.41
2022-08-20T09:27:24.295Z,100501.31
2022-08-20T09:29:54.500Z,100503.34
2022-08-20T09:32:25.167Z,100495.84
2022-08-20T09:34:59.170Z,100492.09
2022-08-20T09:37:33.728Z,100496.91
2022-08-20T09:40:06.577Z,100495.94
2022-08-20T09:42:40.998Z,100494.59
2022-08-20T09:45:11.561Z,100494.88
2022-08-20T09:47:48.721Z,100484.50
2022-08-20T09:50:26.607Z,100474.03
2022-08-20T09:52:56.432Z,100471.44
2022-08-20T09:55:32.609Z,100467.25
2022-08-20T09:58:05.238Z,100463.16
2022-08-20T10:00:33.306Z,100468.66
2022-08-20T10:03:03.560Z,100471.97
2022-08-20T10:05:32.960Z,100475.66
2022-08-20T10:08:01.178Z,100476.75
2022-08-20T10:10:29.287Z,100479.41
2022-08-20T10:12:59.622Z,100484.06
2022-08-20T10:15:27.605Z,100490.06
2022-08-20T10:17:57.396Z,100492.34
2022-08-20T10:20:26.213Z,100486.34
2022-08-20T10:22:55.615Z,100485.69
2022-08-20T10:25:26.428Z,100485.19
2022-08-20T10:27:54.416Z,100494.59
2022-08-20T10:30:24.498Z,100487.75
2022-08-20T10:32:52.554Z,100486.78
2022-08-20T10:35:21.379Z,100480.97
2022-08-20T10:37:49.525Z,100480.59
2022-08-20T10:40:19.253Z,100483.97
2022-08-20T10:42:47.350Z,100487.91
2022-08-20T10:45:17.115Z,100491.66
2022-08-20T10:47:46.061Z,100493.53
2022-08-20T10:50:17.146Z,100498.16
2022-08-20T10:52:45.759Z,100490.88
2022-08-20T10:55:14.308Z,100484.16
2022-08-20T10:57:46.783Z,100484.69
2022-08-20T11:00:17.057Z,100482.44
2022-08-20T11:02:48.259Z,100481.06
2022-08-20T11:05:16.287Z,100483.31
2022-08-20T11:07:59.843Z,100478.28
2022-08-20T11:10:29.894Z,100478.91
2022-08-20T11:12:59.282Z,100479.72
2022-08-20T11:15:27.625Z,100481.19
2022-08-20T11:17:57.230Z,100479.75
2022-08-20T11:20:27.280Z,100469.59
2022-08-20T11:22:58.272Z,100465.06
2022-08-20T11:25:26.931Z,100471.22
2022-08-20T11:27:59.269Z,100469.25
2022-08-20T11:30:30.293Z,100459.38
2022-08-20T11:32:59.219Z,100463.34
2022-08-20T11:35:49.540Z,100456.28
2022-08-20T11:38:20.662Z,100456.72
2022-08-20T11:40:48.766Z,100446.38
2022-08-20T11:43:18.583Z,100444.94
2022-08-20T11:45:56.539Z,100442.94
2022-08-20T11:48:24.642Z,100443.03
2022-08-20T11:50:55.195Z,100439.53
2022-08-20T11:53:23.292Z,100450.63
2022-08-20T11:55:51.336Z,100446.56
2022-08-20T11:58:23.656Z,100441.19
2022-08-20T12:00:51.616Z,100438.22
2022-08-20T12:03:19.836Z,100442.44
2022-08-20T12:05:48.023Z,100443.22
2022-08-20T12:08:25.327Z,100442.06
2022-08-20T12:10:59.543Z,100441.97
2022-08-20T12:13:48.894Z,100434.91
2022-08-20T12:16:18.088Z,100437.03
2022-08-20T12:18:47.711Z,100440.81
2022-08-20T12:21:16.090Z,100442.34
2022-08-20T12:23:44.018Z,100433.78
2022-08-20T12:26:12.245Z,100425.44
2022-08-20T12:28:41.541Z,100423.53
2022-08-20T12:31:11.564Z,100414.00
2022-08-20T12:33:41.708Z,100407.09
2022-08-20T12:36:10.985Z,100415.75
2022-08-20T12:38:41.223Z,100411.84
2022-08-20T12:41:09.045Z,100403.13
2022-08-20T12:43:37.259Z,100409.91
2022-08-20T12:46:06.771Z,100399.53
2022-08-20T12:48:34.830Z,100396.81
2022-08-20T12:51:05.391Z,100407.88
2022-08-20T12:53:33.427Z,100397.28
2022-08-20T12:56:04.993Z,100394.91
2022-08-20T12:58:33.567Z,100394.59
2022-08-20T13:01:01.750Z,100392.06
2022-08-20T13:03:32.195Z,100397.97
2022-08-20T13:06:08.378Z,100398.50
2022-08-20T13:08:36.248Z,100403.03
2022-08-20T13:11:04.326Z,100402.47
2022-08-20T13:13:32.355Z,100404.44
2022-08-20T13:16:02.461Z,100395.44
2022-08-20T13:18:31.890Z,100390.94
2022-08-20T13:20:59.941Z,100397.16
2022-08-20T13:23:28.097Z,100395.81
2022-08-20T13:25:55.998Z,100382.38
2022-08-20T13:28:23.935Z,100384.06
2022-08-20T13:30:54.818Z,100379.59
2022-08-20T13:33:26.533Z,100388.38
2022-08-20T13:35:56.166Z,100389.25
2022-08-20T13:38:24.841Z,100386.16
2022-08-20T13:40:55.143Z,100381.75
2022-08-20T13:43:23.263Z,100378.00
2022-08-20T13:45:54.185Z,100386.88
2022-08-20T13:48:22.480Z,100385.97
2022-08-20T13:50:50.421Z,100380.06
2022-08-20T13:53:20.021Z,100373.63
2022-08-20T13:55:48.275Z,100374.06
2022-08-20T13:58:17.324Z,100370.78
2022-08-20T14:00:47.807Z,100370.31
2022-08-20T14:03:20.042Z,100367.06
2022-08-20T14:05:54.865Z,100373.72
2022-08-20T14:08:25.309Z,100363.53
2022-08-20T14:10:53.662Z,100359.91
2022-08-20T14:13:24.704Z,100370.16
2022-08-20T14:15:55.908Z,100380.72
2022-08-20T14:18:24.214Z,100378.44
2022-08-20T14:20:54.407Z,100372.38
2022-08-20T14:23:27.028Z,100370.88
2022-08-20T14:25:57.654Z,100373.53
2022-08-20T14:28:26.114Z,100373.53
2022-08-20T14:30:54.142Z,100379.72
2022-08-20T14:33:23.409Z,100373.59
2022-08-20T14:35:54.477Z,100377.75
2022-08-20T14:38:22.701Z,100372.56
2022-08-20T14:40:52.260Z,100367.47
2022-08-20T14:43:20.560Z,100372.00
2022-08-20T14:45:48.518Z,100366.81
2022-08-20T14:48:18.623Z,100368.63
2022-08-20T14:50:49.051Z,100378.75
2022-08-20T14:53:17.202Z,100373.88
2022-08-20T14:55:45.264Z,100362.25
2022-08-20T14:58:16.893Z,100368.94
2022-08-20T15:00:45.284Z,100363.41
2022-08-20T15:03:14.195Z,100365.28
2022-08-20T15:05:42.432Z,100366.75
2022-08-20T15:08:12.261Z,100363.94
2022-08-20T15:10:41.166Z,100361.81
2022-08-20T15:13:09.681Z,100362.63
2022-08-20T15:15:44.654Z,100353.84
2022-08-20T15:18:12.767Z,100357.53
2022-08-20T15:20:40.694Z,100355.28
2022-08-20T15:23:11.259Z,100351.91
2022-08-20T15:25:39.257Z,100354.69
2022-08-20T15:28:09.313Z,100351.78
2022-08-20T15:30:40.854Z,100357.75
2022-08-20T15:33:10.459Z,100351.91
2022-08-20T15:35:38.467Z,100353.56
2022-08-20T15:38:12.613Z,100361.00
2022-08-20T15:40:43.140Z,100359.00
2022-08-20T15:43:11.412Z,100356.19
2022-08-20T15:45:40.833Z,100355.44
2022-08-20T15:48:14.419Z,100356.59
2022-08-20T15:51:01.594Z,100359.41
2022-08-20T15:53:40.039Z,100351.59
2022-08-20T15:56:16.423Z,100352.38
2022-08-20T15:58:58.746Z,100358.31
2022-08-20T16:01:37.537Z,100348.75
2022-08-20T16:04:50.083Z,100353.31
2022-08-20T16:07:24.720Z,100352.16
2022-08-20T16:10:03.270Z,100348.00
2022-08-20T16:12:35.623Z,100343.94
2022-08-20T16:15:08.665Z,100344.31
2022-08-20T16:17:43.420Z,100343.75
2022-08-20T16:20:22.144Z,100344.59
2022-08-20T16:22:53.271Z,100341.84
2022-08-20T16:25:29.188Z,100347.31
2022-08-20T16:28:05.564Z,100350.91
2022-08-20T16:30:40.330Z,100349.75
2022-08-20T16:33:15.673Z,100345.59
2022-08-20T16:35:51.437Z,100363.38
2022-08-20T16:38:24.400Z,100363.41
2022-08-20T16:40:56.393Z,100361.19
2022-08-20T16:43:40.780Z,100369.75
2022-08-20T16:46:17.518Z,100372.44
2022-08-20T16:48:56.095Z,100373.09
2022-08-20T16:51:35.095Z,100372.06
2022-08-20T16:54:03.369Z,100376.09
2022-08-20T16:56:33.618Z,100383.41
2022-08-20T16:59:08.253Z,100389.91
2022-08-20T17:01:36.374Z,100380.03
2022-08-20T17:04:09.388Z,100383.88
2022-08-20T17:06:39.743Z,100398.19
2022-08-20T17:09:13.030Z,100402.34
2022-08-20T17:11:41.709Z,100396.69
2022-08-20T17:14:13.433Z,100393.94
2022-08-20T17:16:45.062Z,100389.03
2022-08-20T17:19:20.344Z,100392.34
2022-08-20T17:21:50.182Z,100393.16
2022-08-20T17:24:25.097Z,100401.59
2022-08-20T17:26:59.980Z,100402.81
2022-08-20T17:29:30.478Z,100404.84
2022-08-20T17:32:00.462Z,100414.59
2022-08-20T17:34:32.942Z,100421.09
2022-08-20T17:37:06.534Z,100418.63
2022-08-20T17:39:47.029Z,100426.63
2022-08-20T17:42:20.597Z,100425.84
2022-08-20T17:44:55.125Z,100427.16
2022-08-20T17:47:30.208Z,100438.91
2022-08-20T17:50:09.298Z,100444.03
2022-08-20T17:52:49.871Z,100435.38
2022-08-20T17:55:18.485Z,100446.13
2022-08-20T17:57:57.092Z,100447.78
2022-08-20T18:00:28.466Z,100449.78
2022-08-20T18:03:12.388Z,100447.28
2022-08-20T18:05:42.309Z,100450.72
2022-08-20T18:08:21.463Z,100461.03
2022-08-20T18:11:00.267Z,100464.69
2022-08-20T18:13:45.064Z,100470.41
2022-08-20T18:16:26.533Z,100480.84
2022-08-20T18:18:59.302Z,100480.16
2022-08-20T18:21:49.170Z,100479.69
2022-08-20T18:24:21.569Z,100484.22
2022-08-20T18:26:53.015Z,100489.09
2022-08-20T18:29:27.301Z,100484.47
2022-08-20T18:31:59.100Z,100491.72
2022-08-20T18:34:37.820Z,100491.03
2022-08-20T18:37:22.156Z,100497.38
2022-08-20T18:39:51.551Z,100488.94
2022-08-20T18:42:34.808Z,100500.84
2022-08-20T18:45:03.087Z,100504.38
2022-08-20T18:47:42.264Z,100504.66
2022-08-20T18:50:25.717Z,100510.34
2022-08-20T18:53:16.724Z,100516.63
2022-08-20T18:55:47.726Z,100513.38
2022-08-20T18:58:29.731Z,100513.81
2022-08-20T19:00:59.318Z,100517.63
2022-08-20T19:03:38.088Z,100523.41
2022-08-20T19:06:22.359Z,100523.84
2022-08-20T19:08:57.460Z,100531.34
2022-08-20T19:11:57.758Z,100525.78
2022-08-20T19:14:42.015Z,100538.03
2022-08-20T19:17:18.609Z,100534.31
2022-08-20T19:19:46.731Z,100529.34
2022-08-20T19:22:18.613Z,100526.91
2022-08-20T19:24:56.766Z,100529.81
2022-08-20T19:27:26.437Z,100532.75
2022-08-20T19:29:57.771Z,100531.50
2022-08-20T19:32:27.752Z,100531.25
2022-08-20T19:34:58.842Z,100528.38
2022-08-20T19:37:39.635Z,100537.28
2022-08-20T19:40:28.333Z,100536.06
2022-08-20T19:42:59.621Z,100538.75
2022-08-20T19:45:32.447Z,100536.47
2022-08-20T19:48:18.601Z,100543.13
2022-08-20T19:51:05.873Z,100545.00
2022-08-20T19:53:36.156Z,100548.09
2022-08-20T19:56:13.275Z,100548.50
2022-08-20T19:58:42.048Z,100556.78
2022-08-20T20:01:17.793Z,100545.59
2022-08-20T20:03:56.720Z,100545.59
2022-08-20T20:06:26.831Z,100554.28
2022-08-20T20:08:58.501Z,100550.13
2022-08-20T20:11:32.298Z,100554.63
2022-08-20T20:14:06.515Z,100552.56
2022-08-20T20:16:35.749Z,100558.56
2022-08-20T20:19:25.790Z,100549.88
2022-08-20T20:22:10.401Z,100554.78
2022-08-20T20:25:00.178Z,100556.84
2022-08-20T20:27:31.979Z,100567.59
2022-08-20T20:30:02.398Z,100563.25
2022-08-20T20:32:33.534Z,100557.41
2022-08-20T20:35:05.311Z,100559.06
2022-08-20T20:37:49.400Z,100553.66
2022-08-20T20:40:26.126Z,100558.41
2022-08-20T20:43:04.060Z,100565.00
2022-08-20T20:45:34.699Z,100557.75
2022-08-20T20:48:15.930Z,100559.34
2022-08-20T20:50:43.987Z,100560.56
2022-08-20T20:53:14.917Z,100553.69
2022-08-20T20:55:53.773Z,100559.84
2022-08-20T20:58:25.345Z,100563.31
2022-08-20T21:00:54.999Z,100562.47
2022-08-20T21:03:23.036Z,100560.75
2022-08-20T21:05:51.111Z,100565.66
2022-08-20T21:08:19.902Z,100563.75
2022-08-20T21:10:48.888Z,100570.50
2022-08-20T21:13:19.393Z,100567.13
2022-08-20T21:15:48.718Z,100575.53
2022-08-20T21:18:16.689Z,100573.41
2022-08-20T21:20:48.285Z,100567.97
2022-08-20T21:23:18.661Z,100559.88
2022-08-20T21:25:55.163Z,100569.28
2022-08-20T21:28:28.486Z,100573.75
2022-08-20T21:30:58.486Z,100571.19
2022-08-20T21:33:26.797Z,100572.59
2022-08-20T21:35:54.865Z,100574.63
2022-08-20T21:38:22.749Z,100580.59
2022-08-20T21:40:50.794Z,100575.53
2022-08-20T21:43:18.970Z,100576.25
2022-08-20T21:45:49.475Z,100572.88
2022-08-20T21:48:21.498Z,100575.44
2022-08-20T21:50:49.649Z,100579.28
2022-08-20T21:53:17.607Z,100575.50
2022-08-20T21:55:45.633Z,100579.75
2022-08-20T21:58:13.749Z,100570.78
2022-08-20T22:00:50.824Z,100576.88
2022-08-20T22:03:20.036Z,100576.81
2022-08-20T22:05:50.186Z,100577.84
2022-08-20T22:08:19.420Z,100579.59
2022-08-20T22:10:49.868Z,100581.63
2022-08-20T22:13:17.827Z,100578.50
2022-08-20T22:15:45.800Z,100580.88
2022-08-20T22:18:13.723Z,100580.88
2022-08-20T22:20:42.081Z,100581.22
2022-08-20T22:23:11.489Z,100582.78
2022-08-20T22:25:39.458Z,100575.28
2022-08-20T22:28:07.433Z,100577.03
2022-08-20T22:30:38.308Z,100570.75
2022-08-20T22:33:12.682Z,100574.16
2022-08-20T22:35:46.503Z,100571.88
2022-08-20T22:38:16.475Z,100576.94
2022-08-20T22:40:45.687Z,100579.34
2022-08-20T22:43:14.784Z,100586.06
2022-08-20T22:45:45.073Z,100582.06
2022-08-20T22:48:17.161Z,100586.13
2022-08-20T22:50:45.980Z,100579.84
2022-08-20T22:53:17.085Z,100576.53
2022-08-20T22:55:45.429Z,100579.38
2022-08-20T22:58:13.749Z,100586.91
2022-08-20T23:00:44.491Z,100585.59
2022-08-20T23:03:19.813Z,100580.97
2022-08-20T23:06:04.806Z,100592.38
2022-08-20T23:08:34.916Z,100582.38
2022-08-20T23:11:02.969Z,100583.72
2022-08-20T23:13:30.999Z,100587.97
2022-08-20T23:15:59.366Z,100591.81
2022-08-20T23:18:29.547Z,100590.53
2022-08-20T23:20:59.121Z,100598.25
2022-08-20T23:23:28.232Z,100599.41
2022-08-20T23:25:57.656Z,100599.97
2022-08-20T23:28:26.767Z,100599.47
2022-08-20T23:30:57.355Z,100593.16
2022-08-20T23:33:25.600Z,100589.16
2022-08-20T23:36:04.670Z,100599.22
2022-08-20T23:38:32.754Z,100600.75
2022-08-20T23:41:01.987Z,100592.03
2022-08-20T23:43:30.619Z,100594.75
2022-08-20T23:46:01.062Z,100593.94
2022-08-20T23:48:31.160Z,100595.78
2022-08-20T23:50:59.268Z,100596.31
2022-08-20T23:53:27.199Z,100588.66
2022-08-20T23:55:57.858Z,100588.97
2022-08-20T23:58:27.192Z,100582.97
